Avoca, New York
Current Conditions -  °F | °C
As of 4:54 AM on Friday 24 Oct 2014 (Local Time) from KDSV Reporting Station
Overcast Overcast  
Wind Chill: 50°   Ceiling: 3600
Heat Index: 50°   Visibility: 10mi
Dew Point: 41°   Wind: 7mph
Humidity: 71%   Direction: 330°NNW
Pressure: 30.01"   Gusts: NA
Location:  42.41°N, 77.42°W
Report Text: KDSV 240854Z AUTO 33006KT 10SM OVC036 10/05 A3001 RMK AO2 SLP171 T01000050 53008
Loading
Personal Weather Stations






























Interactive Weather Map
Tropical Storm Tracking
New forecast layout! Learn more

10-Day Weather Forecast

Advertisements
Track Severe Weather on mobile